Latest Coastal Weather Observations for Gove Airport

IDD60701

Issued at 5:35 pm CST Saturday 20 September 2014 (issued every 10 minutes, with the page automatically refreshed every 10 minutes)

About coastal observations | Map of coastal stations | Coastal observations for NT | Marine services | Other Formats
Station Details ID: 014508 Name: GOVE AIRPORT Lat: -12.27 Lon: 136.82 Height: 51.6 m
Data from the previous 72 hours. | See also: Recent months at Gove Airport
Date/Time
CST
Temp

°C
Wind Pressure Rain
since 9am
mm
Weather Cloud Vis
km
Sea
Height
m
Swell
Dir
 
Speed
knots
Gust
knots
hPa Trend Height
m
Period
s
Dir
20/05:30pm 28.0 ESE 8 10 1012.2 - 0.0 - - 10 - - - -
20/05:00pm 29.0 ESE 8 11 1012.1 - 0.0 - - 10 - - - -
20/04:30pm 29.8 E 9 12 1012.0 - 0.0 - - 10 - - - -
20/04:00pm 30.0 E 9 12 1012.0 - 0.0 - - 10 - - - -
20/03:30pm 30.0 ESE 8 12 1012.1 - 0.0 - - 10 - - - -
20/03:00pm 30.3 E 9 13 1011.9 F 0.0 Smoke Mostly clear 26 - - - -
20/02:30pm 30.5 E 9 17 1012.5 - 0.0 - - 10 - - - -
20/02:00pm 30.6 E 8 14 1013.0 - 0.0 - - 10 - - - -
20/01:30pm 29.9 ENE 9 13 1013.5 - 0.0 - Mostly clear 10 - - - -
20/01:00pm 30.2 NE 10 14 1014.0 - 0.0 - Mostly clear 10 - - - -
20/12:30pm 30.0 E 9 14 1014.6 - 0.0 - - 10 - - - -
20/12:00pm 29.6 E 9 12 1014.9 S 0.0 Fine Partly cloudy 22 - - - -
20/11:30am 29.9 NE 9 12 1015.5 - 0.0 - Mostly clear 10 - - - -
20/11:00am 28.9 E 10 15 1015.9 - 0.0 - Mostly clear 10 - - - -
20/10:30am 28.8 E 10 15 1016.1 - 0.0 - Mostly clear 10 - - - -
20/10:00am 28.1 E 10 13 1016.3 - 0.0 - Mostly clear 10 - - - -
20/09:30am 27.9 E 10 14 1016.2 - 0.0 - - 10 - - - -
20/09:00am 28.0 E 8 11 1016.2 R 0.0 Fine Partly cloudy 10 - - - -
20/08:30am 26.6 E 6 9 1016.0 - 0.0 - - 10 - - - -
20/08:00am 24.5 NNE 3 4 1015.9 - 0.0 - - 10 - - - -
20/07:30am 22.4 NNE 3 4 1015.6 - 0.0 - - 10 - - - -
20/07:00am 18.6 CALM 0 3 1015.1 - 0.0 - - 10 - - - -
20/06:30am 18.1 CALM 0 0 1014.5 - 0.0 - Mostly clear 10 - - - -
20/06:20am 18.6 S 3 6 1014.5 - 0.0 Shallow fog Mostly clear 1 - - - -
20/06:00am 18.3 SSW 5 6 1013.7 S 0.0 Shallow fog Mostly clear 12 - - - -
20/05:30am 18.3 NNE 3 4 1013.6 - 0.0 - - 10 - - - -
20/05:00am 18.0 CALM 0 0 1013.4 - 0.0 - - 10 - - - -
20/04:30am 18.0 CALM 0 0 1013.3 - 0.0 - - 10 - - - -
20/04:00am 18.3 N 2 3 1013.2 - 0.0 - - 10 - - - -
20/03:30am 18.5 CALM 0 0 1013.2 - 0.0 - - 10 - - - -
20/03:00am 18.0 CALM 0 0 1012.9 - 0.0 - - 10 - - - -
20/02:30am 17.6 E 2 4 1013.0 - 0.0 - - 10 - - - -
20/02:00am 17.6 S 3 4 1013.2 - 0.0 - - 10 - - - -
20/01:30am 17.8 CALM 0 0 1013.6 - 0.0 - - 10 - - - -
20/01:00am 17.9 S 2 4 1014.0 - 0.0 - - 10 - - - -
20/12:30am 17.8 S 1 4 1014.5 - 0.0 - - 10 - - - -
20/12:00am 18.4 CALM 0 0 1014.7 - 0.0 - - 10 - - - -
 
Date/Time
CST
Temp

°C
Wind Pressure Rain
since 9am
mm
Weather Cloud Vis
km
Sea
Height
m
Swell
Dir
 
Speed
knots
Gust
knots
hPa Trend Height
m
Period
s
Dir
19/11:30pm 18.5 S 1 3 1015.0 - 0.0 - - 10 - - - -
19/11:00pm 18.8 S 3 4 1015.1 - 0.0 - - 10 - - - -
19/10:30pm 19.3 E 3 4 1015.2 - 0.0 - - 10 - - - -
19/10:00pm 19.5 SE 3 4 1015.2 - 0.0 - - 10 - - - -
19/09:30pm 19.7 CALM 0 0 1015.2 - 0.0 - - 10 - - - -
19/09:00pm 20.4 S 2 3 1014.9 - 0.0 - - 10 - - - -
19/08:30pm 20.9 S 4 5 1014.8 - 0.0 - - 10 - - - -
19/08:00pm 22.6 SSE 5 5 1014.5 - 0.0 - - 10 - - - -
19/07:30pm 23.1 SSE 5 5 1014.2 - 0.0 - - 10 - - - -
19/07:00pm 23.9 SE 5 6 1014.0 - 0.0 - - 10 - - - -
19/06:30pm 25.3 SE 7 10 1013.8 - 0.0 - - 10 - - - -
19/06:00pm 26.4 E 8 11 1013.1 - 0.0 - - 10 - - - -
19/05:30pm 27.6 ESE 11 15 1013.0 - 0.0 - - 10 - - - -
19/05:00pm 28.4 ESE 11 15 1012.8 - 0.0 - - 10 - - - -
19/04:30pm 29.1 ESE 13 19 1012.8 - 0.0 - - 10 - - - -
19/04:00pm 29.4 SE 13 18 1012.9 - 0.0 - - 10 - - - -
19/03:30pm 30.0 ESE 13 20 1012.9 - 0.0 - - 10 - - - -
19/03:00pm 29.9 SE 15 20 1012.8 R 0.0 Fine Mostly clear 21 - - - -
19/02:30pm 30.6 SE 14 19 1013.2 - 0.0 - - 10 - - - -
19/02:00pm 31.0 SE 15 20 1013.5 - 0.0 - - 10 - - - -
19/01:30pm 30.3 SE 15 23 1013.7 - 0.0 - - 10 - - - -
19/01:00pm 30.4 SE 13 21 1014.3 - 0.0 - - 10 - - - -
19/12:30pm 30.5 SE 14 20 1014.6 - 0.0 - - 10 - - - -
19/12:00pm 30.9 SE 13 20 1014.8 R 0.0 Fine Mostly clear 20 - - - -
19/11:30am 31.1 ESE 15 21 1015.4 - 0.0 - - 10 - - - -
19/11:00am 30.7 ESE 13 19 1015.6 - 0.0 - - 10 - - - -
19/10:30am 29.9 SE 12 17 1015.8 - 0.0 - - 10 - - - -
19/10:00am 30.3 SE 9 14 1016.0 - 0.0 - - 10 - - - -
19/09:30am 29.0 ESE 8 12 1016.0 - 0.0 - - 10 - - - -
19/09:00am 27.6 SE 10 14 1015.8 F 0.0 Smoke Mostly clear 16 - - - -
19/08:30am 26.6 SSE 9 11 1015.9 - 0.0 - Mostly clear 10 - - - -
19/08:00am 25.6 SE 7 10 1015.8 - 0.0 - Mostly clear 10 - - - -
19/07:30am 24.2 ESE 5 7 1015.5 - 0.0 - Mostly clear 10 - - - -
19/07:00am 20.8 NE 4 4 1015.1 - 0.0 - Mostly clear 10 - - - -
19/06:54am 20.0 N 3 4 1014.9 - 0.0 - Mostly clear 10 - - - -
19/06:30am 19.1 ESE 4 4 1014.6 - 0.0 Fog patches Mostly clear 0.8 - - - -
19/06:00am 19.4 NNE 4 5 1014.0 R 0.0 Shallow fog Mostly cloudy 15 - - - -
19/05:31am 19.6 E 2 4 1014.1 - 0.0 - - 5 - - - -
19/05:30am 19.7 E 1 4 1014.1 - 0.0 - - 7 - - - -
19/05:20am 19.8 CALM 0 0 1014.0 - 0.0 - - 10 - - - -
19/05:06am 19.5 CALM 0 0 1013.9 - 0.0 - - 6 - - - -
19/05:00am 19.9 CALM 0 0 1013.8 - 0.0 - - 8 - - - -
19/04:56am 19.7 CALM 0 0 1013.8 - 0.0 - - 9 - - - -
19/04:37am 19.7 CALM 0 0 1013.7 - 0.0 - - 6 - - - -
19/04:30am 19.9 CALM 0 0 1013.7 - 0.0 - - 9 - - - -
19/04:24am 20.1 CALM 0 4 1013.6 - 0.0 - - 10 - - - -
19/04:00am 20.1 SSE 2 3 1013.4 - 0.0 - - 1 - - - -
19/03:30am 19.6 N 4 5 1013.3 - 0.0 - - 3 - - - -
19/03:06am 19.5 S 4 5 1013.3 - 0.0 - - 6 - - - -
19/03:00am 19.6 S 4 5 1013.1 - 0.0 - - 7 - - - -
19/02:48am 20.1 S 4 5 1013.4 - 0.0 - - 10 - - - -
19/02:30am 19.7 S 4 5 1013.5 - 0.0 - - 5 - - - -
19/02:24am 19.8 S 4 5 1013.5 - 0.0 - - 6 - - - -
19/02:14am 19.4 SSE 4 5 1013.6 - 0.0 - - 9 - - - -
19/02:00am 19.3 SSE 4 5 1013.6 - 0.0 - - 6 - - - -
19/01:58am 19.2 SSE 4 5 1013.7 - 0.0 - - 6 - - - -
19/01:30am 20.8 S 4 5 1013.7 - 0.0 - - 10 - - - -
19/01:00am 21.3 S 4 7 1013.9 - 0.0 - - 10 - - - -
19/12:30am 21.4 S 5 7 1014.4 - 0.0 - - 10 - - - -
19/12:00am 20.6 S 5 7 1014.6 - 0.0 - - 10 - - - -
 
Date/Time
CST
Temp

°C
Wind Pressure Rain
since 9am
mm
Weather Cloud Vis
km
Sea
Height
m
Swell
Dir
 
Speed
knots
Gust
knots
hPa Trend Height
m
Period
s
Dir
18/11:30pm 20.2 S 4 5 1015.2 - 0.0 - - 10 - - - -
18/11:00pm 20.9 S 5 7 1015.5 - 0.0 - - 10 - - - -
18/10:30pm 20.8 SE 3 4 1015.6 - 0.0 - - 10 - - - -
18/10:00pm 21.6 N 3 4 1015.6 - 0.0 - - 10 - - - -
18/09:30pm 22.1 SE 4 5 1015.7 - 0.0 - - 10 - - - -
18/09:00pm 22.6 SSE 4 5 1015.5 - 0.0 - - 10 - - - -
18/08:30pm 22.8 SSE 5 7 1015.6 - 0.0 - - 10 - - - -
18/08:00pm 22.8 SE 4 5 1015.3 - 0.0 - - 10 - - - -
18/07:30pm 23.4 SE 5 6 1014.9 - 0.0 - - 10 - - - -
18/07:00pm 24.1 SSE 5 6 1014.4 - 0.0 - - 10 - - - -
18/06:30pm 25.0 SE 6 9 1014.3 - 0.0 - - 10 - - - -
18/06:00pm 25.8 SSE 10 14 1013.7 - 0.0 - - 10 - - - -
18/05:30pm 27.3 SE 10 13 1013.6 - 0.0 - Mostly clear 10 - - - -
18/05:00pm 28.2 SE 10 13 1013.4 - 0.0 - Mostly clear 10 - - - -
18/04:30pm 28.5 SE 10 14 1013.3 - 0.0 - Mostly clear 10 - - - -
18/04:00pm 28.9 SE 9 15 1013.2 - 0.0 - Mostly clear 10 - - - -
18/03:30pm 28.5 S 10 13 1013.3 - 0.0 - Mostly clear 10 - - - -
18/03:00pm 29.3 SSE 8 13 1013.3 S 0.0 Smoke Mostly clear 22 - - - -
18/02:30pm 28.9 S 11 13 1013.9 - 0.0 - Mostly clear 10 - - - -
18/02:00pm 29.3 SE 11 19 1014.4 - 0.0 - Mostly clear 10 - - - -
18/01:30pm 28.8 SE 13 17 1015.1 - 0.0 - Mostly clear 10 - - - -
18/01:00pm 30.1 ESE 13 17 1015.5 - 0.0 - Mostly clear 10 - - - -
18/12:30pm 30.6 E 9 15 1015.3 - 0.0 - Mostly clear 10 - - - -
18/12:00pm 30.4 E 9 15 1015.5 S 0.0 Smoke Mostly clear 23 - - - -
18/11:30am 29.7 ESE 10 15 1016.0 - 0.0 - Mostly clear 10 - - - -
18/11:00am 30.3 E 11 14 1016.8 - 0.0 - Mostly clear 10 - - - -
18/10:30am 29.5 ESE 10 14 1016.7 - 0.0 - Mostly clear 10 - - - -
18/10:00am 28.6 E 9 11 1016.9 - 0.0 - Mostly clear 10 - - - -
18/09:30am 28.1 E 9 15 1016.9 - 0.0 - Mostly clear 10 - - - -
18/09:00am 27.3 E 7 11 1016.6 R 0.0 Smoke Mostly clear 18 - - - -
18/08:30am 26.7 E 5 7 1016.4 - 0.0 - Mostly clear 10 - - - -
18/08:00am 25.2 E 6 8 1016.4 - 0.0 - Mostly clear 10 - - - -
18/07:30am 23.9 E 4 5 1016.0 - 0.0 - Mostly clear 10 - - - -
18/07:00am 20.8 E 4 5 1015.8 - 0.0 - Mostly clear 10 - - - -
18/06:30am 18.8 ESE 3 3 1015.4 - 0.0 - Mostly clear 10 - - - -
18/06:00am 18.7 NNE 2 4 1014.7 R 0.0 Shallow fog Mostly clear 12 - - - -
18/05:30am 18.5 ESE 3 4 1014.4 - 0.0 - Partly cloudy 6 - - - -
18/05:29am 18.6 ESE 3 4 1014.4 - 0.0 - Partly cloudy 6 - - - -
18/05:00am 19.0 ESE 4 5 1014.0 - 0.0 - Partly cloudy 8 - - - -
18/04:33am 17.8 E 3 4 1013.5 - 0.0 - Partly cloudy 7 - - - -
18/04:32am 17.7 E 3 4 1013.5 - 0.0 - Partly cloudy 7 - - - -
18/04:30am 17.6 E 2 4 1013.4 - 0.0 - Partly cloudy 8 - - - -
18/04:00am 18.5 ENE 5 7 1013.4 - 0.0 - Cloudy 0.2 - - - -
18/03:30am 17.8 S 2 4 1013.2 - 0.0 - Cloudy 0.3 - - - -
18/03:00am 17.4 CALM 0 0 1012.8 - 0.0 - Cloudy 2 - - - -
18/02:57am 17.5 WSW 1 3 1013.1 - 0.0 - Partly cloudy 4 - - - -
18/02:30am 18.0 CALM 0 0 1013.3 - 0.0 - Partly cloudy 2 - - - -
18/02:00am 18.4 CALM 0 0 1013.5 - 0.0 - - 5 - - - -
18/01:30am 19.2 CALM 0 0 1014.0 - 0.0 - - 2 - - - -
18/01:00am 19.7 CALM 0 0 1014.5 - 0.0 - - 4 - - - -
18/12:46am 19.9 CALM 0 0 1014.9 - 0.0 - - 6 - - - -
18/12:30am 20.9 ESE 1 3 1015.1 - 0.0 - - 10 - - - -
18/12:00am 20.6 SSE 1 5 1015.0 - 0.0 - - 10 - - - -
 
Date/Time
CST
Temp

°C
Wind Pressure Rain
since 9am
mm
Weather Cloud Vis
km
Sea
Height
m
Swell
Dir
 
Speed
knots
Gust
knots
hPa Trend Height
m
Period
s
Dir
17/11:30pm 21.1 SSE 3 5 1015.6 - 0.0 - - 10 - - - -
17/11:00pm 21.5 SSE 5 6 1015.7 - 0.0 - - 10 - - - -
17/10:30pm 22.0 SSE 5 6 1015.7 - 0.0 - - 10 - - - -
17/10:00pm 22.1 SSE 5 6 1015.7 - 0.0 - - 10 - - - -
17/09:30pm 21.8 SE 3 4 1015.5 - 0.0 - - 10 - - - -
17/09:00pm 22.2 S 3 4 1015.0 - 0.0 - - 10 - - - -
17/08:30pm 22.9 S 4 5 1014.8 - 0.0 - - 10 - - - -
17/08:00pm 23.5 SSE 4 4 1014.5 - 0.0 - - 10 - - - -
17/07:30pm 24.1 SE 3 4 1014.2 - 0.0 - - 10 - - - -
17/07:00pm 24.7 SE 6 9 1013.9 - 0.0 - - 10 - - - -
17/06:30pm 25.3 SE 8 11 1013.7 - 0.0 - Partly cloudy 10 - - - -
17/06:00pm 25.9 SE 9 12 1013.2 - 0.0 - Cloudy 10 - - - -

Other Formats:

Comma delimited format used in spreadsheet applications
http://www.bom.gov.au/fwo/IDD60701/IDD60701.94150.axf

JavaScript Object Notation format (JSON) in row-major order
http://www.bom.gov.au/fwo/IDD60701/IDD60701.94150.json